createdAt,value
2022-11-29T00:00:59.427Z,60.24
2022-11-29T00:03:59.824Z,60.31
2022-11-29T00:06:48.340Z,60.33
2022-11-29T00:09:33.718Z,60.17
2022-11-29T00:12:23.497Z,60.47
2022-11-29T00:15:02.806Z,60.53
2022-11-29T00:17:48.042Z,60.66
2022-11-29T00:20:25.422Z,60.31
2022-11-29T00:23:43.030Z,60.29
2022-11-29T00:26:20.119Z,60.22
2022-11-29T00:28:50.225Z,60.38
2022-11-29T00:34:13.991Z,60.54
2022-11-29T00:36:58.940Z,60.28
2022-11-29T00:39:31.722Z,60.61
2022-11-29T00:42:11.050Z,60.54
2022-11-29T00:44:48.483Z,60.65
2022-11-29T00:47:25.096Z,60.64
2022-11-29T00:50:03.600Z,60.69
2022-11-29T00:52:34.518Z,61.07
2022-11-29T00:55:11.515Z,61.06
2022-11-29T01:01:06.441Z,60.77
2022-11-29T01:03:51.162Z,60.97
2022-11-29T01:06:25.282Z,61.13
2022-11-29T01:08:56.479Z,60.87
2022-11-29T01:11:26.389Z,60.95
2022-11-29T01:14:01.289Z,61.04
2022-11-29T01:16:59.931Z,60.98
2022-11-29T01:19:33.708Z,60.85
2022-11-29T01:22:08.276Z,60.87
2022-11-29T01:24:48.961Z,60.82
2022-11-29T01:27:24.357Z,60.68
2022-11-29T01:30:04.055Z,60.95
2022-11-29T01:32:37.769Z,60.52
2022-11-29T01:35:12.428Z,60.62
2022-11-29T01:38:01.341Z,60.88
2022-11-29T01:43:30.707Z,60.92
2022-11-29T01:46:14.331Z,61.18
2022-11-29T01:48:58.599Z,60.69
2022-11-29T01:51:41.157Z,60.74
2022-11-29T01:54:17.617Z,61.04
2022-11-29T01:56:54.398Z,61.14
2022-11-29T01:59:32.662Z,61.07
2022-11-29T02:02:27.481Z,60.93
2022-11-29T02:05:05.512Z,61.11
2022-11-29T02:07:35.888Z,61.11
2022-11-29T02:10:06.590Z,60.92
2022-11-29T02:12:43.453Z,60.90
2022-11-29T02:15:21.377Z,60.80
2022-11-29T02:18:04.633Z,60.97
2022-11-29T02:21:16.979Z,61.10
2022-11-29T02:24:25.044Z,61.18
2022-11-29T02:27:41.587Z,61.05
2022-11-29T02:30:30.599Z,61.13
2022-11-29T02:33:34.837Z,60.96
2022-11-29T02:36:44.345Z,61.54
2022-11-29T02:39:45.169Z,61.19
2022-11-29T02:42:56.114Z,61.49
2022-11-29T02:45:50.806Z,61.07
2022-11-29T02:48:32.242Z,61.43
2022-11-29T02:51:05.713Z,61.46
2022-11-29T02:53:41.009Z,61.26
2022-11-29T02:56:15.382Z,61.42
2022-11-29T02:58:56.965Z,61.50
2022-11-29T03:01:37.148Z,61.40
2022-11-29T03:04:13.062Z,61.20
2022-11-29T03:06:52.308Z,61.32
2022-11-29T03:09:33.054Z,61.55
2022-11-29T03:15:24.716Z,61.71
2022-11-29T03:18:04.176Z,61.35
2022-11-29T03:20:43.849Z,61.37
2022-11-29T03:23:26.566Z,61.44
2022-11-29T03:26:11.829Z,61.40
2022-11-29T03:28:47.212Z,61.40
2022-11-29T03:31:23.550Z,61.47
2022-11-29T03:33:57.093Z,61.25
2022-11-29T03:36:32.743Z,61.07
2022-11-29T03:39:11.881Z,61.46
2022-11-29T03:41:49.075Z,61.31
2022-11-29T03:44:24.579Z,61.39
2022-11-29T03:46:58.528Z,61.07
2022-11-29T03:49:33.183Z,61.13
2022-11-29T03:52:07.193Z,61.55
2022-11-29T03:54:42.980Z,61.38
2022-11-29T03:57:19.831Z,61.42
2022-11-29T04:00:02.823Z,61.50
2022-11-29T04:02:57.252Z,61.55
2022-11-29T04:05:52.483Z,61.15
2022-11-29T04:08:54.248Z,61.30
2022-11-29T04:12:04.292Z,61.44
2022-11-29T04:14:52.026Z,61.33
2022-11-29T04:18:12.011Z,61.71
2022-11-29T04:21:42.058Z,61.64
2022-11-29T04:24:55.587Z,61.77
2022-11-29T04:27:43.484Z,61.83
2022-11-29T04:30:22.309Z,61.57
2022-11-29T04:33:30.466Z,61.77
2022-11-29T04:36:33.911Z,61.70
2022-11-29T04:39:15.705Z,62.01
2022-11-29T04:42:31.635Z,62.05
2022-11-29T04:45:12.752Z,61.70
2022-11-29T04:48:00.457Z,62.00
2022-11-29T04:50:48.772Z,61.65
2022-11-29T04:53:34.966Z,61.72
2022-11-29T04:56:13.452Z,62.16
2022-11-29T04:58:44.290Z,61.93
2022-11-29T05:02:00.652Z,61.80
2022-11-29T05:04:41.935Z,61.98
2022-11-29T05:07:18.009Z,62.28
2022-11-29T05:09:54.640Z,62.13
2022-11-29T05:12:35.473Z,62.03
2022-11-29T05:15:33.117Z,61.94
2022-11-29T05:18:14.125Z,62.11
2022-11-29T05:20:51.488Z,62.15
2022-11-29T05:23:29.886Z,62.29
2022-11-29T05:26:05.754Z,62.14
2022-11-29T05:28:41.091Z,62.07
2022-11-29T05:31:58.315Z,61.86
2022-11-29T05:34:41.943Z,62.37
2022-11-29T05:37:19.968Z,62.05
2022-11-29T05:40:14.283Z,62.08
2022-11-29T05:42:53.538Z,62.03
2022-11-29T05:45:26.547Z,62.32
2022-11-29T05:48:08.640Z,62.04
2022-11-29T05:50:47.510Z,62.30
2022-11-29T05:53:35.561Z,62.31
2022-11-29T05:56:10.803Z,61.89
2022-11-29T05:58:53.889Z,62.52
2022-11-29T06:01:31.222Z,62.11
2022-11-29T06:04:10.304Z,61.89
2022-11-29T06:06:47.813Z,62.34
2022-11-29T06:09:37.163Z,62.31
2022-11-29T06:12:16.928Z,62.22
2022-11-29T06:15:14.583Z,61.99
2022-11-29T06:18:01.599Z,62.16
2022-11-29T06:21:03.004Z,62.26
2022-11-29T06:24:00.582Z,62.45
2022-11-29T06:26:51.414Z,62.34
2022-11-29T06:29:39.771Z,62.35
2022-11-29T06:32:17.672Z,62.42
2022-11-29T06:34:51.251Z,62.17
2022-11-29T06:37:26.645Z,62.53
2022-11-29T06:39:57.853Z,62.34
2022-11-29T06:42:32.019Z,62.28
2022-11-29T06:45:05.293Z,62.43
2022-11-29T06:47:36.991Z,62.66
2022-11-29T06:50:20.139Z,62.65
2022-11-29T06:52:59.059Z,62.42
2022-11-29T06:55:35.074Z,62.87
2022-11-29T06:58:17.559Z,62.79
2022-11-29T07:00:53.139Z,62.68
2022-11-29T07:04:00.224Z,62.72
2022-11-29T07:06:42.168Z,62.61
2022-11-29T07:09:17.350Z,62.86
2022-11-29T07:12:03.123Z,63.13
2022-11-29T07:14:42.626Z,62.72
2022-11-29T07:17:18.941Z,62.72
2022-11-29T07:19:52.868Z,63.12
2022-11-29T07:22:47.171Z,62.98
2022-11-29T07:25:31.578Z,63.05
2022-11-29T07:28:08.144Z,62.69
2022-11-29T07:30:50.050Z,62.96
2022-11-29T07:33:24.199Z,63.09
2022-11-29T07:36:09.777Z,63.06
2022-11-29T07:38:50.464Z,63.23
2022-11-29T07:41:22.681Z,63.04
2022-11-29T07:43:59.420Z,63.09
2022-11-29T07:46:34.949Z,62.69
2022-11-29T07:52:01.319Z,63.33
2022-11-29T07:54:33.426Z,63.07
2022-11-29T07:57:21.729Z,63.08
2022-11-29T08:00:16.778Z,63.01
2022-11-29T08:03:23.283Z,63.43
2022-11-29T08:09:15.104Z,63.02
2022-11-29T08:11:48.384Z,62.97
2022-11-29T08:14:55.911Z,62.83
2022-11-29T08:21:06.975Z,63.17
2022-11-29T08:23:52.409Z,63.16
2022-11-29T08:26:32.341Z,63.21
2022-11-29T08:29:08.156Z,63.28
2022-11-29T08:31:40.782Z,63.63
2022-11-29T08:34:39.387Z,63.38
2022-11-29T08:37:19.248Z,63.71
2022-11-29T08:40:00.423Z,63.47
2022-11-29T08:42:49.160Z,63.56
2022-11-29T08:45:55.492Z,63.84
2022-11-29T08:51:50.489Z,63.52
2022-11-29T08:54:43.633Z,63.30
2022-11-29T08:57:41.590Z,63.67
2022-11-29T09:00:23.806Z,63.72
2022-11-29T09:02:54.785Z,63.60
2022-11-29T09:05:37.486Z,63.91
2022-11-29T09:08:14.795Z,63.33
2022-11-29T09:10:46.630Z,63.72
2022-11-29T09:13:25.686Z,63.29
2022-11-29T09:16:10.947Z,63.50
2022-11-29T09:19:43.430Z,63.71
2022-11-29T09:30:45.479Z,64.23
2022-11-29T09:33:20.575Z,64.08
2022-11-29T09:39:00.015Z,64.02
2022-11-29T09:42:16.759Z,63.65
2022-11-29T09:44:57.074Z,64.11
2022-11-29T09:52:56.226Z,63.89
2022-11-29T09:56:02.758Z,64.10
2022-11-29T09:58:43.678Z,63.63
2022-11-29T10:01:19.067Z,63.99
2022-11-29T10:03:55.839Z,63.86
2022-11-29T10:06:27.583Z,63.81
2022-11-29T10:09:12.274Z,63.97
2022-11-29T10:11:44.929Z,63.72
2022-11-29T10:14:26.326Z,64.04
2022-11-29T10:17:00.233Z,63.65
2022-11-29T10:19:37.780Z,63.46
2022-11-29T10:22:36.537Z,63.66
2022-11-29T10:25:22.144Z,63.80
2022-11-29T10:27:58.572Z,63.47
2022-11-29T10:30:35.169Z,63.52
2022-11-29T10:33:13.926Z,63.61
2022-11-29T10:35:54.789Z,63.34
2022-11-29T10:38:49.174Z,63.28
2022-11-29T10:41:24.255Z,63.19
2022-11-29T10:44:12.285Z,63.40
2022-11-29T10:47:13.077Z,63.53
2022-11-29T10:49:45.117Z,62.96
2022-11-29T10:52:22.831Z,62.91
2022-11-29T10:55:09.469Z,62.95
2022-11-29T10:58:31.679Z,62.97
2022-11-29T11:21:05.596Z,62.35
2022-11-29T11:26:27.284Z,62.25
2022-11-29T11:32:34.515Z,61.86
2022-11-29T11:35:21.028Z,61.88
2022-11-29T11:38:22.167Z,61.27
2022-11-29T11:41:09.633Z,61.69
2022-11-29T11:44:45.703Z,61.35
2022-11-29T11:47:30.664Z,61.50
2022-11-29T11:50:13.082Z,61.96
2022-11-29T11:56:33.285Z,61.31
2022-11-29T11:59:41.932Z,61.03
2022-11-29T12:02:51.358Z,61.27
2022-11-29T12:05:25.235Z,61.40
2022-11-29T12:08:08.375Z,61.49
2022-11-29T12:10:42.184Z,61.07
2022-11-29T12:13:26.420Z,61.08
2022-11-29T12:16:00.250Z,61.13
2022-11-29T12:18:39.403Z,61.10
2022-11-29T12:21:16.845Z,61.17
2022-11-29T12:23:53.052Z,61.12
2022-11-29T12:29:35.299Z,61.20
2022-11-29T12:32:24.571Z,61.15
2022-11-29T12:43:16.965Z,60.89
2022-11-29T12:50:58.331Z,60.77
2022-11-29T12:54:36.120Z,60.91
2022-11-29T13:00:37.850Z,60.20
2022-11-29T13:03:37.354Z,60.40
2022-11-29T13:07:07.411Z,60.24
2022-11-29T13:10:18.238Z,60.42
2022-11-29T13:13:30.386Z,60.21
2022-11-29T13:19:55.296Z,59.82
2022-11-29T13:22:34.481Z,59.54
2022-11-29T13:29:06.988Z,59.44
2022-11-29T13:43:11.087Z,58.93
2022-11-29T13:46:54.062Z,58.87
2022-11-29T13:58:17.770Z,59.00
2022-11-29T14:02:49.902Z,58.69
2022-11-29T14:06:15.756Z,58.77
2022-11-29T14:09:49.194Z,58.91
2022-11-29T14:16:18.160Z,58.69
2022-11-29T14:19:26.650Z,58.58
2022-11-29T14:22:55.974Z,58.52
2022-11-29T14:25:51.802Z,58.99
2022-11-29T14:28:43.164Z,58.80
2022-11-29T14:31:40.626Z,58.65
2022-11-29T14:34:38.269Z,58.61
2022-11-29T14:37:45.765Z,58.69
2022-11-29T14:40:51.188Z,58.54
2022-11-29T14:43:55.670Z,58.51
2022-11-29T14:46:35.751Z,58.81
2022-11-29T14:49:12.275Z,58.79
2022-11-29T14:52:31.364Z,58.70
2022-11-29T15:06:00.026Z,58.70
2022-11-29T15:12:09.887Z,58.84
2022-11-29T15:14:55.857Z,58.79
2022-11-29T15:17:42.577Z,58.86
2022-11-29T15:23:50.408Z,58.88
2022-11-29T15:26:36.066Z,59.01
2022-11-29T15:29:39.587Z,58.83
2022-11-29T15:32:11.324Z,58.89
2022-11-29T15:35:06.720Z,59.10
2022-11-29T15:37:52.066Z,58.87
2022-11-29T15:40:43.644Z,58.93
2022-11-29T15:52:43.815Z,59.12
2022-11-29T15:55:13.504Z,59.26
2022-11-29T15:58:16.716Z,59.19
2022-11-29T16:00:51.510Z,59.42
2022-11-29T16:03:27.001Z,59.29
2022-11-29T16:06:11.178Z,59.41
2022-11-29T16:09:01.266Z,59.54
2022-11-29T16:11:37.523Z,59.61
2022-11-29T16:17:39.458Z,59.49
2022-11-29T16:20:51.195Z,59.71
2022-11-29T16:23:25.496Z,59.61
2022-11-29T16:26:21.758Z,59.72
2022-11-29T16:29:02.616Z,59.56
2022-11-29T16:31:50.886Z,59.68
2022-11-29T16:34:47.308Z,59.56
2022-11-29T16:37:24.518Z,59.63
2022-11-29T16:39:59.309Z,59.62
2022-11-29T16:42:44.969Z,59.77
2022-11-29T16:45:33.410Z,59.66
2022-11-29T16:48:45.755Z,59.78
2022-11-29T16:55:09.148Z,59.85
2022-11-29T16:58:04.634Z,60.05
2022-11-29T17:04:31.600Z,59.79
2022-11-29T17:07:50.980Z,59.93
2022-11-29T17:11:02.895Z,59.76
2022-11-29T17:13:43.486Z,60.02
2022-11-29T17:16:40.350Z,59.88
2022-11-29T17:19:22.121Z,59.94
2022-11-29T17:21:53.825Z,59.67
2022-11-29T17:24:35.396Z,59.72
2022-11-29T17:27:34.230Z,59.53
2022-11-29T17:33:23.467Z,59.30
2022-11-29T17:35:52.873Z,59.42
2022-11-29T17:38:27.817Z,59.58
